createdAt,value
2018-09-18T00:00:06.229Z,85.30
2018-09-18T00:00:37.279Z,85.20
2018-09-18T00:01:08.323Z,85.20
2018-09-18T00:01:39.374Z,85.30
2018-09-18T00:02:10.411Z,85.40
2018-09-18T00:02:46.882Z,85.40
2018-09-18T00:03:17.913Z,85.20
2018-09-18T00:03:48.968Z,85.10
2018-09-18T00:04:20.017Z,85.00
2018-09-18T00:04:51.065Z,85.00
2018-09-18T00:05:22.110Z,85.00
2018-09-18T00:05:53.156Z,84.90
2018-09-18T00:06:24.207Z,84.90
2018-09-18T00:06:55.250Z,85.00
2018-09-18T00:07:26.300Z,84.80
2018-09-18T00:07:57.359Z,84.90
2018-09-18T00:08:28.404Z,84.80
2018-09-18T00:08:59.447Z,84.80
2018-09-18T00:09:30.499Z,84.70
2018-09-18T00:10:01.552Z,84.80
2018-09-18T00:10:32.595Z,84.70
2018-09-18T00:11:03.638Z,84.70
2018-09-18T00:11:34.748Z,84.70
2018-09-18T00:12:05.796Z,84.70
2018-09-18T00:12:36.891Z,84.70
2018-09-18T00:13:07.903Z,84.60
2018-09-18T00:13:38.942Z,84.60
2018-09-18T00:14:09.987Z,84.50
2018-09-18T00:14:41.031Z,84.60
2018-09-18T00:15:12.075Z,84.60
2018-09-18T00:15:43.139Z,84.70
2018-09-18T00:16:14.208Z,84.70
2018-09-18T00:16:45.247Z,84.70
2018-09-18T00:17:16.299Z,84.50
2018-09-18T00:17:47.443Z,84.50
2018-09-18T00:18:18.495Z,84.50
2018-09-18T00:18:49.535Z,84.50
2018-09-18T00:19:20.579Z,84.50
2018-09-18T00:19:51.655Z,84.50
2018-09-18T00:20:22.694Z,84.50
2018-09-18T00:20:53.735Z,84.50
2018-09-18T00:21:24.850Z,84.50
2018-09-18T00:21:55.891Z,84.60
2018-09-18T00:22:26.947Z,84.60
2018-09-18T00:22:58.003Z,84.60
2018-09-18T00:23:29.059Z,84.50
2018-09-18T00:24:00.100Z,84.70
2018-09-18T00:24:31.140Z,84.60
2018-09-18T00:25:02.189Z,84.50
2018-09-18T00:25:33.227Z,84.70
2018-09-18T00:26:04.269Z,84.80
2018-09-18T00:26:35.314Z,84.90
2018-09-18T00:27:06.368Z,85.10
2018-09-18T00:27:37.406Z,85.40
2018-09-18T00:28:08.464Z,85.50
2018-09-18T00:28:39.509Z,85.70
2018-09-18T00:29:10.558Z,85.70
2018-09-18T00:29:41.611Z,85.70
2018-09-18T00:30:12.652Z,85.70
2018-09-18T00:30:43.704Z,85.60
2018-09-18T00:31:14.756Z,85.50
2018-09-18T00:31:45.799Z,85.40
2018-09-18T00:32:16.842Z,85.20
2018-09-18T00:32:47.892Z,85.20
2018-09-18T00:33:18.950Z,85.20
2018-09-18T00:33:50.003Z,85.20
2018-09-18T00:34:21.100Z,85.10
2018-09-18T00:34:52.095Z,85.20
2018-09-18T00:35:23.151Z,85.10
2018-09-18T00:35:54.190Z,85.10
2018-09-18T00:36:25.264Z,85.10
2018-09-18T00:36:56.291Z,85.10
2018-09-18T00:37:27.334Z,85.10
2018-09-18T00:37:58.394Z,85.10
2018-09-18T00:38:29.449Z,85.00
2018-09-18T00:39:00.499Z,84.90
2018-09-18T00:39:31.547Z,84.80
2018-09-18T00:40:02.583Z,84.70
2018-09-18T00:40:33.631Z,84.60
2018-09-18T00:41:04.678Z,84.50
2018-09-18T00:41:35.715Z,84.50
2018-09-18T00:42:06.764Z,84.60
2018-09-18T00:42:37.811Z,84.50
2018-09-18T00:43:08.858Z,84.70
2018-09-18T00:43:39.903Z,84.70
2018-09-18T00:44:10.947Z,84.60
2018-09-18T00:44:41.996Z,84.60
2018-09-18T00:45:13.044Z,84.50
2018-09-18T00:45:44.103Z,84.50
2018-09-18T00:46:15.147Z,84.40
2018-09-18T00:46:46.202Z,84.40
2018-09-18T00:47:17.243Z,84.50
2018-09-18T00:47:48.288Z,84.40
2018-09-18T00:48:19.351Z,84.60
2018-09-18T00:48:50.391Z,84.70
2018-09-18T00:49:21.434Z,84.60
2018-09-18T00:49:52.479Z,84.50
2018-09-18T00:50:23.526Z,84.40
2018-09-18T00:50:54.577Z,84.40
2018-09-18T00:51:25.623Z,84.40
2018-09-18T00:51:56.663Z,84.40
2018-09-18T00:52:27.715Z,84.20
2018-09-18T00:52:58.765Z,84.40
2018-09-18T00:53:29.811Z,84.40
2018-09-18T00:54:00.859Z,84.30
2018-09-18T00:54:31.911Z,84.30
2018-09-18T00:55:02.951Z,84.40
2018-09-18T00:55:34.004Z,84.30
2018-09-18T00:56:05.051Z,84.40
2018-09-18T00:56:36.117Z,84.50
2018-09-18T00:57:07.147Z,84.50
2018-09-18T00:57:38.209Z,84.40
2018-09-18T00:58:09.251Z,84.40
2018-09-18T00:58:40.296Z,84.50
2018-09-18T00:59:11.339Z,84.50
2018-09-18T00:59:42.391Z,84.50
2018-09-18T01:00:13.436Z,84.50
2018-09-18T01:00:44.479Z,84.50
2018-09-18T01:01:15.604Z,84.60
2018-09-18T01:01:46.635Z,84.50
2018-09-18T01:02:17.678Z,84.50
2018-09-18T01:02:48.738Z,84.50
2018-09-18T01:03:19.786Z,84.70
2018-09-18T01:03:50.870Z,85.00
2018-09-18T01:04:21.904Z,85.20
2018-09-18T01:04:52.938Z,85.30
2018-09-18T01:05:23.984Z,85.30
2018-09-18T01:05:55.043Z,85.20
2018-09-18T01:06:26.087Z,85.20
2018-09-18T01:06:57.131Z,85.20
2018-09-18T01:07:28.178Z,85.00
2018-09-18T01:07:59.232Z,85.00
2018-09-18T01:08:30.278Z,84.80
2018-09-18T01:09:01.322Z,84.80
2018-09-18T01:09:32.367Z,85.00
2018-09-18T01:10:03.410Z,85.10
2018-09-18T01:10:34.463Z,85.10
2018-09-18T01:11:05.515Z,85.10
2018-09-18T01:11:36.559Z,85.10
2018-09-18T01:12:07.600Z,84.80
2018-09-18T01:12:38.646Z,85.10
2018-09-18T01:13:09.710Z,85.10
2018-09-18T01:13:40.755Z,85.00
2018-09-18T01:14:11.803Z,84.90
2018-09-18T01:14:42.852Z,84.80
2018-09-18T01:15:13.890Z,84.70
2018-09-18T01:15:44.959Z,84.60
2018-09-18T01:16:16.024Z,84.50
2018-09-18T01:16:47.071Z,84.40
2018-09-18T01:17:18.115Z,84.30
2018-09-18T01:17:49.162Z,84.40
2018-09-18T01:18:20.219Z,84.30
2018-09-18T01:18:51.255Z,84.40
2018-09-18T01:19:22.298Z,84.40
2018-09-18T01:19:53.353Z,84.40
2018-09-18T01:20:24.390Z,84.30
2018-09-18T01:20:55.439Z,84.40
2018-09-18T01:21:26.489Z,84.20
2018-09-18T01:21:57.534Z,84.20
2018-09-18T01:22:28.583Z,84.30
2018-09-18T01:22:59.626Z,84.20
2018-09-18T01:23:30.687Z,84.20
2018-09-18T01:24:01.733Z,84.10
2018-09-18T01:24:32.774Z,84.10
2018-09-18T01:25:03.823Z,84.10
2018-09-18T01:25:34.875Z,84.20
2018-09-18T01:26:05.930Z,84.20
2018-09-18T01:26:36.974Z,84.40
2018-09-18T01:27:08.043Z,84.40
2018-09-18T01:27:39.087Z,84.30
2018-09-18T01:28:10.141Z,84.30
2018-09-18T01:28:41.218Z,84.40
2018-09-18T01:29:12.239Z,85.00
2018-09-18T01:29:43.290Z,84.50
2018-09-18T01:30:14.401Z,84.30
2018-09-18T01:30:45.476Z,84.30
2018-09-18T01:31:16.510Z,84.40
2018-09-18T01:31:47.559Z,84.30
2018-09-18T01:32:18.606Z,84.50
2018-09-18T01:32:49.653Z,84.40
2018-09-18T01:33:20.711Z,84.30
2018-09-18T01:33:51.755Z,84.20
2018-09-18T01:34:22.803Z,84.40
2018-09-18T01:34:53.847Z,84.20
2018-09-18T01:35:24.892Z,84.20
2018-09-18T01:35:55.939Z,84.10
2018-09-18T01:36:26.982Z,84.20
2018-09-18T01:36:58.026Z,84.30
2018-09-18T01:37:29.077Z,84.20
2018-09-18T01:38:00.125Z,84.30
2018-09-18T01:38:31.184Z,84.30
2018-09-18T01:39:02.231Z,84.30
2018-09-18T01:39:33.271Z,84.30
2018-09-18T01:40:04.314Z,84.40
2018-09-18T01:40:35.354Z,84.50
2018-09-18T01:41:06.395Z,84.50
2018-09-18T01:41:37.440Z,84.70
2018-09-18T01:42:08.484Z,84.80
2018-09-18T01:42:39.544Z,84.80
2018-09-18T01:43:10.597Z,84.90
2018-09-18T01:43:41.710Z,84.80
2018-09-18T01:44:12.695Z,84.90
2018-09-18T01:44:43.748Z,84.80
2018-09-18T01:45:14.792Z,84.80
2018-09-18T01:45:45.838Z,84.80
2018-09-18T01:46:16.892Z,84.70
2018-09-18T01:46:47.935Z,84.80
2018-09-18T01:47:18.978Z,84.70
2018-09-18T01:47:50.036Z,84.80
2018-09-18T01:48:21.089Z,84.80
2018-09-18T01:48:52.148Z,84.80
2018-09-18T01:49:23.199Z,84.70
2018-09-18T01:49:54.247Z,84.60
2018-09-18T01:50:25.327Z,84.50
2018-09-18T01:50:56.371Z,84.40
2018-09-18T01:51:27.419Z,84.40
2018-09-18T01:51:58.459Z,84.40
2018-09-18T01:52:29.495Z,84.40
2018-09-18T01:53:00.544Z,84.30
2018-09-18T01:53:31.599Z,84.10
2018-09-18T01:54:02.648Z,84.10
2018-09-18T01:54:33.693Z,84.00
2018-09-18T01:55:04.734Z,84.00
2018-09-18T01:55:35.805Z,84.00
2018-09-18T01:56:06.872Z,84.00
2018-09-18T01:56:37.914Z,84.00
2018-09-18T01:57:08.959Z,84.00
2018-09-18T01:57:40.018Z,84.00
2018-09-18T01:58:11.063Z,84.00
2018-09-18T01:58:42.120Z,84.10
2018-09-18T01:59:13.172Z,84.10
2018-09-18T01:59:44.216Z,84.10
2018-09-18T02:00:15.260Z,84.20
2018-09-18T02:00:46.302Z,84.20
2018-09-18T02:01:17.347Z,84.20
2018-09-18T02:01:48.398Z,84.80
2018-09-18T02:02:19.435Z,84.10
2018-09-18T02:02:50.483Z,84.00
2018-09-18T02:03:21.603Z,83.80
2018-09-18T02:03:52.655Z,83.90
2018-09-18T02:04:23.694Z,84.00
2018-09-18T02:04:54.734Z,84.10
2018-09-18T02:05:25.783Z,84.10
2018-09-18T02:05:56.830Z,84.20
2018-09-18T02:06:27.875Z,84.10
2018-09-18T02:06:58.971Z,84.10
2018-09-18T02:07:30.011Z,84.20
2018-09-18T02:08:01.054Z,84.10
2018-09-18T02:08:32.116Z,84.10
2018-09-18T02:09:03.168Z,84.10
2018-09-18T02:09:34.210Z,84.00
2018-09-18T02:10:05.259Z,83.90
2018-09-18T02:10:36.314Z,83.80
2018-09-18T02:11:07.371Z,83.80
2018-09-18T02:11:38.406Z,83.90
2018-09-18T02:12:09.453Z,84.00
2018-09-18T02:12:40.503Z,84.00
2018-09-18T02:13:11.549Z,83.80
2018-09-18T02:13:42.607Z,83.80
2018-09-18T02:14:13.655Z,84.00
2018-09-18T02:14:44.695Z,84.00
2018-09-18T02:15:15.738Z,84.00
2018-09-18T02:15:46.788Z,84.00
2018-09-18T02:16:17.847Z,84.10
2018-09-18T02:16:48.971Z,84.20
2018-09-18T02:17:20.014Z,84.40
2018-09-18T02:17:51.064Z,84.60
2018-09-18T02:18:22.109Z,84.80
2018-09-18T02:18:53.164Z,84.70
2018-09-18T02:19:24.210Z,85.30
2018-09-18T02:19:55.547Z,84.40
2018-09-18T02:20:26.592Z,84.50
2018-09-18T02:20:57.635Z,84.60
2018-09-18T02:21:28.674Z,84.70
2018-09-18T02:21:59.727Z,84.50
2018-09-18T02:22:30.770Z,84.40
2018-09-18T02:23:01.870Z,84.10
2018-09-18T02:23:32.921Z,84.10
2018-09-18T02:24:03.979Z,84.10
2018-09-18T02:24:35.028Z,84.10
2018-09-18T02:25:06.083Z,84.20
2018-09-18T02:25:37.132Z,84.20
2018-09-18T02:26:08.178Z,84.20
2018-09-18T02:26:39.227Z,84.10
2018-09-18T02:27:10.293Z,84.10
2018-09-18T02:27:41.339Z,84.20
2018-09-18T02:28:12.394Z,84.00
2018-09-18T02:28:43.450Z,84.00
2018-09-18T02:29:14.490Z,84.00
2018-09-18T02:29:45.534Z,84.00
2018-09-18T02:30:16.588Z,84.00
2018-09-18T02:30:47.631Z,84.00
2018-09-18T02:31:18.711Z,84.00
2018-09-18T02:31:49.765Z,83.80
2018-09-18T02:32:20.823Z,83.80
2018-09-18T02:32:51.887Z,83.80
2018-09-18T02:33:22.931Z,83.90
2018-09-18T02:33:54.006Z,84.00
2018-09-18T02:34:25.031Z,83.90
2018-09-18T02:34:56.087Z,83.80
2018-09-18T02:35:27.130Z,83.80
2018-09-18T02:35:58.178Z,83.80
2018-09-18T02:36:29.226Z,83.80
2018-09-18T02:37:00.267Z,83.90
2018-09-18T02:37:31.310Z,84.00
2018-09-18T02:38:02.357Z,84.00
2018-09-18T02:38:33.403Z,84.70
2018-09-18T02:39:04.471Z,84.10
2018-09-18T02:39:35.524Z,84.10
2018-09-18T02:40:06.571Z,84.00
2018-09-18T02:40:37.625Z,83.90
2018-09-18T02:41:08.672Z,83.90
2018-09-18T02:41:39.722Z,83.90
2018-09-18T02:42:10.767Z,84.00
2018-09-18T02:42:41.822Z,84.00
2018-09-18T02:43:12.859Z,84.00
2018-09-18T02:43:43.916Z,84.10
2018-09-18T02:44:14.967Z,84.10
2018-09-18T02:44:46.017Z,84.10
2018-09-18T02:45:17.068Z,83.60
2018-09-18T02:45:48.112Z,84.00
2018-09-18T02:46:19.181Z,84.00
2018-09-18T02:46:50.222Z,83.90
2018-09-18T02:47:21.266Z,83.80
2018-09-18T02:47:52.312Z,83.80
2018-09-18T02:48:23.361Z,83.70
2018-09-18T02:48:54.414Z,83.80
2018-09-18T02:49:25.496Z,83.80
2018-09-18T02:49:56.571Z,83.70
2018-09-18T02:50:27.617Z,83.80
2018-09-18T02:50:58.662Z,83.70
2018-09-18T02:51:29.699Z,83.70
2018-09-18T02:52:00.744Z,83.70
2018-09-18T02:52:31.837Z,83.70
2018-09-18T02:53:02.883Z,83.90
2018-09-18T02:53:33.930Z,84.10
2018-09-18T02:54:04.985Z,84.20
2018-09-18T02:54:36.026Z,84.40
2018-09-18T02:55:07.065Z,84.50
2018-09-18T02:55:38.110Z,84.40
2018-09-18T02:56:09.154Z,84.50
2018-09-18T02:56:40.199Z,84.50
2018-09-18T02:57:11.247Z,84.50
2018-09-18T02:57:42.298Z,84.50
2018-09-18T02:58:13.348Z,84.20
2018-09-18T02:58:44.390Z,84.20
2018-09-18T02:59:15.455Z,84.20
2018-09-18T02:59:46.494Z,84.20
2018-09-18T03:00:17.543Z,84.10
2018-09-18T03:00:48.630Z,84.10
2018-09-18T03:01:19.694Z,84.10
2018-09-18T03:01:50.741Z,84.00
2018-09-18T03:02:21.762Z,83.90
2018-09-18T03:02:52.819Z,84.00
2018-09-18T03:03:23.862Z,83.90
2018-09-18T03:03:54.914Z,83.80
2018-09-18T03:04:25.987Z,83.80
2018-09-18T03:04:57.026Z,83.80
2018-09-18T03:05:28.077Z,83.70
2018-09-18T03:05:59.115Z,83.70
2018-09-18T03:06:30.163Z,83.70
2018-09-18T03:07:01.206Z,83.70
2018-09-18T03:07:32.256Z,83.70
2018-09-18T03:08:03.321Z,83.70
2018-09-18T03:08:34.343Z,83.60
2018-09-18T03:09:05.405Z,83.60
2018-09-18T03:09:36.452Z,83.60
2018-09-18T03:10:07.503Z,83.50
2018-09-18T03:10:38.540Z,83.60
2018-09-18T03:11:09.639Z,83.50
2018-09-18T03:11:40.635Z,83.60
2018-09-18T03:12:11.690Z,83.60
2018-09-18T03:12:42.751Z,83.70
2018-09-18T03:13:13.801Z,83.80
2018-09-18T03:13:44.857Z,83.70
2018-09-18T03:14:15.912Z,83.80
2018-09-18T03:14:46.954Z,83.70
2018-09-18T03:15:18.003Z,83.70
2018-09-18T03:15:49.056Z,83.60
2018-09-18T03:16:20.100Z,83.60
2018-09-18T03:16:51.165Z,83.60
2018-09-18T03:17:22.218Z,83.70
2018-09-18T03:17:53.356Z,84.40
2018-09-18T03:18:24.419Z,83.70
2018-09-18T03:18:55.459Z,83.80
2018-09-18T03:19:26.507Z,83.70
2018-09-18T03:19:57.549Z,83.70
2018-09-18T03:20:28.595Z,83.70
2018-09-18T03:20:59.706Z,83.70
2018-09-18T03:21:30.692Z,84.40
2018-09-18T03:22:01.740Z,83.70
2018-09-18T03:22:32.783Z,84.00
2018-09-18T03:23:03.832Z,83.70
2018-09-18T03:23:34.875Z,83.70
2018-09-18T03:24:05.939Z,83.60
2018-09-18T03:24:36.983Z,83.60
2018-09-18T03:25:08.032Z,83.50
2018-09-18T03:25:39.071Z,83.60
2018-09-18T03:26:10.115Z,83.70
2018-09-18T03:26:41.162Z,83.70
2018-09-18T03:27:12.239Z,83.50
2018-09-18T03:27:43.298Z,83.70
2018-09-18T03:28:14.290Z,83.80
2018-09-18T03:28:45.339Z,83.80
2018-09-18T03:29:16.400Z,83.80
2018-09-18T03:29:47.439Z,83.90
2018-09-18T03:30:18.502Z,84.00
2018-09-18T03:30:49.552Z,84.60
2018-09-18T03:31:20.603Z,84.00
2018-09-18T03:31:51.658Z,83.90
2018-09-18T03:32:22.935Z,83.80
2018-09-18T03:32:53.963Z,83.70
2018-09-18T03:33:25.067Z,83.70
2018-09-18T03:33:56.112Z,83.70
2018-09-18T03:34:27.191Z,83.60
2018-09-18T03:34:58.244Z,83.50
2018-09-18T03:35:29.331Z,83.50
2018-09-18T03:36:00.379Z,83.60
2018-09-18T03:36:31.455Z,83.60
2018-09-18T03:37:02.508Z,83.70
2018-09-18T03:37:33.551Z,83.70
2018-09-18T03:38:04.595Z,83.70
2018-09-18T03:38:35.648Z,83.70
2018-09-18T03:39:06.731Z,84.40
2018-09-18T03:39:37.812Z,83.50
2018-09-18T03:40:08.834Z,83.60
2018-09-18T03:40:39.878Z,83.60
2018-09-18T03:41:10.925Z,83.50
2018-09-18T03:41:41.971Z,83.50
2018-09-18T03:42:13.023Z,83.40
2018-09-18T03:42:44.071Z,83.30
2018-09-18T03:43:15.119Z,83.20
2018-09-18T03:43:46.173Z,83.20
2018-09-18T03:44:17.233Z,83.20
2018-09-18T03:44:48.334Z,83.20
2018-09-18T03:45:19.447Z,83.20
2018-09-18T03:45:50.700Z,83.20
2018-09-18T03:46:21.763Z,83.20
2018-09-18T03:46:52.806Z,83.20
2018-09-18T03:47:23.855Z,83.20
2018-09-18T03:47:54.907Z,83.30
2018-09-18T03:48:25.960Z,83.40
2018-09-18T03:48:57.000Z,83.30
2018-09-18T03:49:28.050Z,83.40
2018-09-18T03:49:59.091Z,83.50
2018-09-18T03:50:30.211Z,83.50
2018-09-18T03:51:01.250Z,83.50
2018-09-18T03:51:32.304Z,83.40
2018-09-18T03:52:03.351Z,83.40
2018-09-18T03:52:34.400Z,83.20
2018-09-18T03:53:05.446Z,83.30
2018-09-18T03:53:36.491Z,83.40
2018-09-18T03:54:07.537Z,83.30
2018-09-18T03:54:38.611Z,83.20
2018-09-18T03:55:09.647Z,83.20
2018-09-18T03:55:40.692Z,83.40
2018-09-18T03:56:11.739Z,83.40
2018-09-18T03:56:42.795Z,83.40
2018-09-18T03:57:13.859Z,83.10
2018-09-18T03:57:44.918Z,83.30
2018-09-18T03:58:15.964Z,83.10
2018-09-18T03:58:47.024Z,83.00
2018-09-18T03:59:18.081Z,83.00
2018-09-18T03:59:49.133Z,83.00
2018-09-18T04:00:20.182Z,82.90
2018-09-18T04:00:51.230Z,83.00
2018-09-18T04:01:22.279Z,83.10
2018-09-18T04:01:53.331Z,83.10
2018-09-18T04:02:24.389Z,83.00
2018-09-18T04:02:55.487Z,82.80
2018-09-18T04:03:26.487Z,82.90
2018-09-18T04:03:57.540Z,83.00
2018-09-18T04:04:28.597Z,83.10
2018-09-18T04:04:59.638Z,83.10
2018-09-18T04:05:30.699Z,83.10
2018-09-18T04:06:01.734Z,83.20
2018-09-18T04:06:32.775Z,83.50
2018-09-18T04:07:03.810Z,83.70
2018-09-18T04:07:34.855Z,83.70
2018-09-18T04:08:06.158Z,83.70
2018-09-18T04:08:37.202Z,83.70
2018-09-18T04:09:08.248Z,83.90
2018-09-18T04:09:39.294Z,83.90
2018-09-18T04:10:10.357Z,83.90
2018-09-18T04:10:41.396Z,83.90
2018-09-18T04:11:12.466Z,83.90
2018-09-18T04:11:43.511Z,83.80
2018-09-18T04:12:14.558Z,83.70
2018-09-18T04:12:45.654Z,83.80
2018-09-18T04:13:16.710Z,83.00
2018-09-18T04:13:47.787Z,83.70
2018-09-18T04:14:18.835Z,83.70
2018-09-18T04:14:49.900Z,83.60
2018-09-18T04:15:20.948Z,83.50
2018-09-18T04:15:51.992Z,83.00
2018-09-18T04:16:23.042Z,83.20
2018-09-18T04:16:54.094Z,83.20
2018-09-18T04:17:25.147Z,83.10
2018-09-18T04:17:56.198Z,83.10
2018-09-18T04:18:27.239Z,83.00
2018-09-18T04:18:58.283Z,83.00
2018-09-18T04:19:29.346Z,83.00
2018-09-18T04:20:00.392Z,83.00
2018-09-18T04:20:31.431Z,83.10
2018-09-18T04:21:02.475Z,83.10
2018-09-18T04:21:33.523Z,83.10
2018-09-18T04:22:04.573Z,83.20
2018-09-18T04:22:35.619Z,83.20
2018-09-18T04:23:06.672Z,83.30
2018-09-18T04:23:37.710Z,83.10
2018-09-18T04:24:08.760Z,83.20
2018-09-18T04:24:39.811Z,83.20
2018-09-18T04:25:10.858Z,83.20
2018-09-18T04:25:41.904Z,83.20
2018-09-18T04:26:12.942Z,83.70
2018-09-18T04:26:43.994Z,83.20
2018-09-18T04:27:15.079Z,83.30
2018-09-18T04:27:46.107Z,83.40
2018-09-18T04:28:17.152Z,83.30
2018-09-18T04:28:48.214Z,83.30
2018-09-18T04:29:19.251Z,83.10
2018-09-18T04:29:50.305Z,83.10
2018-09-18T04:30:21.355Z,83.10
2018-09-18T04:30:52.402Z,83.00
2018-09-18T04:31:23.453Z,83.00
2018-09-18T04:31:54.490Z,82.90
2018-09-18T04:32:25.536Z,82.90
2018-09-18T04:32:56.586Z,82.90
2018-09-18T04:33:27.626Z,83.00
2018-09-18T04:33:58.675Z,82.90
2018-09-18T04:34:29.712Z,82.80
2018-09-18T04:35:00.769Z,82.70
2018-09-18T04:35:31.819Z,82.70
2018-09-18T04:36:02.859Z,82.70
2018-09-18T04:36:33.903Z,82.70
2018-09-18T04:37:04.946Z,82.80
2018-09-18T04:37:35.994Z,82.70
2018-09-18T04:38:07.039Z,82.70
2018-09-18T04:38:38.079Z,82.60
2018-09-18T04:39:09.122Z,82.50
2018-09-18T04:39:40.171Z,82.40
2018-09-18T04:40:11.219Z,82.50
2018-09-18T04:40:42.280Z,82.50
2018-09-18T04:41:13.323Z,82.50
2018-09-18T04:41:44.374Z,82.60
2018-09-18T04:42:15.412Z,82.70
2018-09-18T04:42:46.466Z,82.90
2018-09-18T04:43:17.510Z,83.10
2018-09-18T04:43:48.560Z,83.20
2018-09-18T04:44:19.614Z,83.30
2018-09-18T04:44:50.659Z,83.20
2018-09-18T04:45:21.711Z,83.20
2018-09-18T04:45:52.779Z,83.10
2018-09-18T04:46:23.812Z,83.80
2018-09-18T04:46:54.855Z,83.20
2018-09-18T04:47:25.900Z,83.70
2018-09-18T04:47:56.945Z,83.20
2018-09-18T04:48:27.994Z,83.10
2018-09-18T04:48:59.042Z,83.20
2018-09-18T04:49:30.083Z,83.20
2018-09-18T04:50:01.142Z,83.20
2018-09-18T04:50:32.196Z,83.20
2018-09-18T04:51:03.247Z,83.90
2018-09-18T04:51:34.291Z,83.10
2018-09-18T04:52:05.344Z,83.00
2018-09-18T04:52:36.383Z,83.00
2018-09-18T04:53:07.436Z,83.00
2018-09-18T04:53:38.479Z,82.90
2018-09-18T04:54:09.538Z,82.80
2018-09-18T04:54:40.580Z,82.70
2018-09-18T04:55:11.661Z,82.80
2018-09-18T04:55:42.711Z,82.80
2018-09-18T04:56:13.760Z,82.80
2018-09-18T04:56:44.802Z,82.90
2018-09-18T04:57:15.861Z,82.90
2018-09-18T04:57:46.922Z,82.80
2018-09-18T04:58:17.963Z,82.90
2018-09-18T04:58:49.007Z,82.90
2018-09-18T04:59:20.046Z,82.90
2018-09-18T04:59:51.195Z,83.00
2018-09-18T05:00:22.247Z,83.00
2018-09-18T05:00:53.294Z,83.00
2018-09-18T05:01:24.340Z,83.00
2018-09-18T05:01:55.394Z,83.10
2018-09-18T05:02:26.429Z,83.10
2018-09-18T05:02:57.474Z,83.00
2018-09-18T05:03:28.529Z,83.00
2018-09-18T05:03:59.568Z,83.00
2018-09-18T05:04:30.611Z,83.00
2018-09-18T05:05:01.669Z,82.90
2018-09-18T05:05:32.707Z,82.80
2018-09-18T05:06:03.755Z,82.90
2018-09-18T05:06:34.799Z,82.80
2018-09-18T05:07:05.851Z,82.70
2018-09-18T05:07:36.895Z,83.00
2018-09-18T05:08:07.943Z,82.70
2018-09-18T05:08:38.991Z,82.70
2018-09-18T05:09:10.100Z,82.60
2018-09-18T05:09:41.083Z,82.60
2018-09-18T05:10:12.142Z,82.60
2018-09-18T05:10:43.195Z,82.50
2018-09-18T05:11:14.243Z,82.50
2018-09-18T05:11:45.282Z,82.50
2018-09-18T05:12:16.335Z,82.40
2018-09-18T05:12:47.374Z,82.30
2018-09-18T05:13:18.430Z,82.30
2018-09-18T05:13:49.487Z,82.20
2018-09-18T05:14:20.566Z,82.20
2018-09-18T05:14:51.571Z,82.30
2018-09-18T05:15:22.648Z,82.40
2018-09-18T05:15:53.690Z,82.30
2018-09-18T05:16:24.739Z,82.30
2018-09-18T05:16:55.789Z,82.30
2018-09-18T05:17:26.839Z,82.40
2018-09-18T05:17:57.886Z,82.50
2018-09-18T05:18:28.951Z,82.50
2018-09-18T05:18:59.992Z,82.50
2018-09-18T05:19:31.035Z,82.70
2018-09-18T05:20:02.092Z,82.80
2018-09-18T05:20:33.143Z,83.00
2018-09-18T05:21:04.186Z,83.10
2018-09-18T05:21:35.241Z,83.10
2018-09-18T05:22:06.308Z,83.80
2018-09-18T05:22:37.326Z,83.10
2018-09-18T05:23:08.379Z,83.10
2018-09-18T05:23:39.422Z,83.10
2018-09-18T05:24:10.465Z,83.00
2018-09-18T05:24:41.506Z,83.00
2018-09-18T05:25:12.575Z,83.00
2018-09-18T05:25:43.627Z,83.00
2018-09-18T05:26:14.675Z,82.90
2018-09-18T05:26:45.723Z,82.90
2018-09-18T05:27:16.774Z,82.80
2018-09-18T05:27:47.820Z,82.80
2018-09-18T05:28:18.872Z,82.80
2018-09-18T05:28:49.913Z,82.70
2018-09-18T05:29:20.953Z,82.70
2018-09-18T05:29:52.003Z,82.70
2018-09-18T05:30:23.063Z,82.70
2018-09-18T05:30:54.107Z,82.70
2018-09-18T05:31:25.150Z,82.60
2018-09-18T05:31:56.196Z,82.60
2018-09-18T05:32:27.242Z,83.40
2018-09-18T05:32:58.292Z,82.60
2018-09-18T05:33:29.346Z,82.60
2018-09-18T05:34:00.386Z,82.70
2018-09-18T05:34:31.432Z,82.70
2018-09-18T05:35:02.483Z,82.90
2018-09-18T05:35:33.539Z,82.80
2018-09-18T05:36:04.587Z,82.80
2018-09-18T05:36:35.629Z,82.80
2018-09-18T05:37:06.677Z,82.80
2018-09-18T05:37:37.727Z,82.90
2018-09-18T05:38:08.782Z,82.80
2018-09-18T05:38:39.836Z,82.70
2018-09-18T05:39:10.875Z,82.60
2018-09-18T05:39:41.974Z,82.70
2018-09-18T05:40:13.026Z,82.70
2018-09-18T05:40:44.086Z,82.70
2018-09-18T05:41:15.133Z,82.60
2018-09-18T05:41:46.174Z,82.60
2018-09-18T05:42:17.225Z,82.50
2018-09-18T05:42:48.258Z,82.50
2018-09-18T05:43:19.307Z,82.40
2018-09-18T05:43:50.359Z,82.60
2018-09-18T05:44:21.408Z,82.50
2018-09-18T05:44:52.456Z,82.40
2018-09-18T05:45:23.495Z,82.40
2018-09-18T05:45:54.549Z,82.50
2018-09-18T05:46:25.597Z,82.50
2018-09-18T05:46:56.642Z,82.40
2018-09-18T05:47:27.687Z,82.30
2018-09-18T05:47:58.757Z,82.20
2018-09-18T05:48:29.787Z,82.20
2018-09-18T05:49:00.847Z,82.30
2018-09-18T05:49:31.901Z,82.40
2018-09-18T05:50:02.947Z,82.20
2018-09-18T05:50:34.014Z,82.20
2018-09-18T05:51:05.064Z,82.20
2018-09-18T05:51:36.359Z,82.10
2018-09-18T05:52:07.402Z,82.10
2018-09-18T05:52:38.449Z,82.20
2018-09-18T05:53:09.495Z,82.10
2018-09-18T05:53:40.556Z,82.10
2018-09-18T05:54:11.609Z,82.20
2018-09-18T05:54:42.651Z,82.80
2018-09-18T05:55:13.699Z,82.40
2018-09-18T05:55:44.758Z,82.50
2018-09-18T05:56:15.799Z,82.60
2018-09-18T05:56:46.840Z,82.70
2018-09-18T05:57:17.895Z,82.20
2018-09-18T05:57:48.951Z,82.80
2018-09-18T05:58:20.034Z,82.90
2018-09-18T05:58:51.070Z,82.90
2018-09-18T05:59:22.124Z,83.00
2018-09-18T05:59:53.172Z,82.90
2018-09-18T06:00:24.214Z,82.80
2018-09-18T06:00:55.279Z,83.00
2018-09-18T06:01:26.324Z,83.00
2018-09-18T06:01:57.371Z,83.00
2018-09-18T06:02:28.423Z,82.90
2018-09-18T06:02:59.463Z,82.80
2018-09-18T06:03:30.499Z,82.80
2018-09-18T06:04:01.548Z,82.70
2018-09-18T06:04:33.485Z,82.70
2018-09-18T06:05:04.502Z,82.60
2018-09-18T06:05:35.563Z,82.60
2018-09-18T06:06:06.615Z,82.50
2018-09-18T06:06:37.658Z,82.40
2018-09-18T06:07:08.712Z,82.40
2018-09-18T06:07:39.747Z,82.40
2018-09-18T06:08:10.796Z,83.00
2018-09-18T06:08:41.848Z,82.40
2018-09-18T06:09:12.971Z,82.40
2018-09-18T06:09:44.032Z,82.40
2018-09-18T06:10:15.080Z,82.50
2018-09-18T06:10:46.120Z,82.50
2018-09-18T06:11:17.172Z,82.70
2018-09-18T06:11:48.218Z,82.70
2018-09-18T06:12:19.265Z,82.70
2018-09-18T06:12:50.307Z,82.70
2018-09-18T06:13:21.346Z,82.70
2018-09-18T06:13:52.391Z,82.60
2018-09-18T06:14:23.440Z,82.60
2018-09-18T06:14:54.487Z,82.50
2018-09-18T06:15:25.540Z,82.60
2018-09-18T06:15:56.582Z,82.60
2018-09-18T06:16:27.625Z,82.70
2018-09-18T06:16:58.677Z,83.10
2018-09-18T06:17:29.714Z,82.70
2018-09-18T06:18:00.751Z,82.60
2018-09-18T06:18:31.798Z,82.60
2018-09-18T06:19:02.876Z,82.50
2018-09-18T06:19:33.896Z,82.40
2018-09-18T06:20:04.949Z,82.40
2018-09-18T06:20:35.990Z,82.40
2018-09-18T06:21:07.039Z,82.40
2018-09-18T06:21:38.079Z,82.40
2018-09-18T06:22:09.132Z,82.30
2018-09-18T06:22:40.171Z,82.10
2018-09-18T06:23:11.218Z,82.20
2018-09-18T06:23:42.275Z,82.20
2018-09-18T06:24:13.323Z,82.20
2018-09-18T06:24:44.369Z,82.20
2018-09-18T06:25:15.416Z,82.30
2018-09-18T06:25:46.467Z,82.30
2018-09-18T06:26:17.615Z,82.20
2018-09-18T06:26:48.553Z,82.20
2018-09-18T06:27:19.591Z,82.20
2018-09-18T06:27:50.642Z,82.20
2018-09-18T06:28:21.705Z,82.20
2018-09-18T06:28:52.762Z,82.20
2018-09-18T06:29:23.807Z,82.20
2018-09-18T06:29:54.852Z,82.20
2018-09-18T06:30:25.902Z,82.30
2018-09-18T06:30:56.947Z,82.30
2018-09-18T06:31:27.995Z,82.40
2018-09-18T06:31:59.042Z,82.50
2018-09-18T06:32:30.092Z,82.80
2018-09-18T06:33:01.136Z,82.90
2018-09-18T06:33:32.187Z,83.00
2018-09-18T06:34:03.234Z,83.10
2018-09-18T06:34:34.280Z,83.10
2018-09-18T06:35:05.324Z,83.10
2018-09-18T06:35:36.366Z,83.10
2018-09-18T06:36:07.422Z,83.10
2018-09-18T06:36:38.479Z,83.00
2018-09-18T06:37:09.527Z,83.00
2018-09-18T06:37:40.575Z,83.00
2018-09-18T06:38:11.634Z,83.00
2018-09-18T06:38:42.695Z,83.00
2018-09-18T06:39:13.779Z,83.00
2018-09-18T06:39:44.831Z,83.00